createdAt,value
2019-04-29T00:02:34.058Z,91.80
2019-04-29T00:05:09.598Z,92.00
2019-04-29T00:07:45.810Z,92.00
2019-04-29T00:10:24.566Z,91.90
2019-04-29T00:13:02.158Z,92.10
2019-04-29T00:15:44.541Z,92.20
2019-04-29T00:18:24.836Z,92.10
2019-04-29T00:21:00.575Z,92.20
2019-04-29T00:23:38.067Z,92.30
2019-04-29T00:26:13.683Z,92.20
2019-04-29T00:28:51.075Z,92.00
2019-04-29T00:31:26.074Z,91.80
2019-04-29T00:34:01.895Z,92.10
2019-04-29T00:36:56.144Z,92.10
2019-04-29T00:39:49.207Z,91.90
2019-04-29T00:42:25.823Z,92.10
2019-04-29T00:45:01.753Z,91.80
2019-04-29T00:47:41.536Z,91.80
2019-04-29T00:50:18.924Z,91.80
2019-04-29T00:52:56.355Z,91.80
2019-04-29T00:55:33.190Z,91.80
2019-04-29T00:58:10.168Z,91.60
2019-04-29T01:00:47.831Z,91.70
2019-04-29T01:03:25.279Z,91.80
2019-04-29T01:06:02.486Z,91.80
2019-04-29T01:08:39.812Z,92.00
2019-04-29T01:11:16.954Z,91.90
2019-04-29T01:13:53.023Z,92.20
2019-04-29T01:16:31.950Z,92.30
2019-04-29T01:19:10.266Z,92.20
2019-04-29T01:21:47.726Z,92.30
2019-04-29T01:24:25.067Z,92.10
2019-04-29T01:27:03.378Z,92.10
2019-04-29T01:29:40.376Z,91.90
2019-04-29T01:32:17.291Z,92.00
2019-04-29T01:34:54.013Z,92.00
2019-04-29T01:37:39.964Z,92.10
2019-04-29T01:40:19.613Z,92.00
2019-04-29T01:42:56.911Z,91.80
2019-04-29T01:45:32.536Z,91.80
2019-04-29T01:48:08.298Z,91.60
2019-04-29T01:50:53.776Z,91.80
2019-04-29T01:53:31.209Z,92.00
2019-04-29T01:56:08.211Z,92.10
2019-04-29T01:58:43.962Z,92.20
2019-04-29T02:01:19.596Z,92.20
2019-04-29T02:04:01.576Z,92.20
2019-04-29T02:06:36.622Z,92.50
2019-04-29T02:09:25.549Z,92.50
2019-04-29T02:12:00.501Z,92.30
2019-04-29T02:14:37.659Z,92.30
2019-04-29T02:17:17.715Z,92.40
2019-04-29T02:19:53.970Z,92.30
2019-04-29T02:22:32.832Z,92.20
2019-04-29T02:25:15.752Z,92.20
2019-04-29T02:27:51.933Z,92.50
2019-04-29T02:30:38.316Z,92.60
2019-04-29T02:33:17.657Z,92.80
2019-04-29T02:35:54.415Z,92.80
2019-04-29T02:38:36.996Z,93.00
2019-04-29T02:41:15.186Z,92.60
2019-04-29T02:43:51.759Z,92.90
2019-04-29T02:46:27.921Z,93.00
2019-04-29T02:49:06.390Z,93.20
2019-04-29T02:51:53.503Z,93.20
2019-04-29T02:54:34.938Z,93.30
2019-04-29T02:57:15.194Z,93.70
2019-04-29T02:59:52.836Z,93.50
2019-04-29T03:02:29.661Z,93.50
2019-04-29T03:05:12.113Z,93.30
2019-04-29T03:07:53.608Z,94.00
2019-04-29T03:10:41.601Z,94.10
2019-04-29T03:13:35.077Z,94.00
2019-04-29T03:16:15.907Z,93.70
2019-04-29T03:25:05.539Z,94.10
2019-04-29T03:27:43.327Z,93.90
2019-04-29T03:30:20.820Z,93.80
2019-04-29T03:32:58.108Z,93.50
2019-04-29T03:35:35.203Z,93.70
2019-04-29T03:38:10.954Z,93.90
2019-04-29T03:40:48.289Z,93.70
2019-04-29T03:43:24.112Z,93.90
2019-04-29T03:45:59.738Z,94.40
2019-04-29T03:48:35.601Z,94.10
2019-04-29T03:51:13.611Z,94.30
2019-04-29T03:53:51.312Z,94.60
2019-04-29T03:56:27.475Z,94.60
2019-04-29T03:59:04.825Z,94.80
2019-04-29T04:01:45.680Z,94.80
2019-04-29T04:04:40.159Z,95.20
2019-04-29T04:07:30.645Z,95.40
2019-04-29T04:10:08.326Z,95.70
2019-04-29T04:12:43.971Z,95.70
2019-04-29T04:15:19.831Z,96.00
2019-04-29T04:17:57.905Z,96.10
2019-04-29T04:20:33.749Z,96.00
2019-04-29T04:23:10.733Z,96.30
2019-04-29T04:25:49.486Z,96.00
2019-04-29T04:28:28.567Z,96.10
2019-04-29T04:31:10.945Z,96.10
2019-04-29T04:33:51.729Z,96.30
2019-04-29T04:36:28.468Z,96.30
2019-04-29T04:39:05.417Z,96.40
2019-04-29T04:41:46.184Z,96.40
2019-04-29T04:44:21.868Z,96.40
2019-04-29T04:46:57.694Z,96.40
2019-04-29T04:49:41.982Z,96.00
2019-04-29T04:52:22.647Z,95.90
2019-04-29T04:54:58.305Z,96.10
2019-04-29T04:57:43.969Z,95.70
2019-04-29T05:00:27.024Z,95.90
2019-04-29T05:03:03.520Z,96.10
2019-04-29T05:05:42.858Z,96.30
2019-04-29T05:08:20.169Z,96.30
2019-04-29T05:10:55.763Z,96.10
2019-04-29T05:13:32.990Z,95.90
2019-04-29T05:16:12.896Z,95.50
2019-04-29T05:18:55.873Z,95.70
2019-04-29T05:21:35.556Z,95.50
2019-04-29T05:24:11.676Z,95.60
2019-04-29T05:26:48.731Z,95.40
2019-04-29T05:29:24.876Z,95.50
2019-04-29T05:32:02.227Z,95.50
2019-04-29T05:34:41.713Z,95.40
2019-04-29T05:37:19.874Z,95.20
2019-04-29T05:40:00.838Z,95.10
2019-04-29T05:42:38.111Z,95.10
2019-04-29T05:45:16.626Z,95.20
2019-04-29T05:47:56.932Z,95.30
2019-04-29T05:50:32.835Z,94.90
2019-04-29T05:53:11.432Z,94.90
2019-04-29T05:55:52.546Z,94.90
2019-04-29T05:58:27.501Z,94.70
2019-04-29T06:01:09.645Z,94.90
2019-04-29T06:03:49.204Z,95.10
2019-04-29T06:06:26.514Z,95.00
2019-04-29T06:09:03.113Z,95.10
2019-04-29T06:11:38.958Z,94.90
2019-04-29T06:14:14.577Z,95.00
2019-04-29T06:16:52.667Z,95.00
2019-04-29T06:19:27.174Z,95.10
2019-04-29T06:22:04.235Z,95.00
2019-04-29T06:24:42.250Z,95.00
2019-04-29T06:27:18.035Z,95.00
2019-04-29T06:29:58.450Z,95.10
2019-04-29T06:32:35.237Z,95.00
2019-04-29T06:35:14.142Z,94.90
2019-04-29T06:37:51.090Z,94.50
2019-04-29T06:40:30.757Z,94.60
2019-04-29T06:43:08.533Z,94.60
2019-04-29T06:45:49.064Z,94.80
2019-04-29T06:48:29.011Z,94.30
2019-04-29T06:51:08.209Z,94.20
2019-04-29T06:53:48.573Z,94.10
2019-04-29T06:56:26.538Z,94.20
2019-04-29T06:59:07.529Z,93.80
2019-04-29T07:01:50.962Z,94.00
2019-04-29T07:04:26.569Z,94.60
2019-04-29T07:07:02.434Z,94.30
2019-04-29T07:09:38.058Z,94.10
2019-04-29T07:12:18.980Z,94.60
2019-04-29T07:14:56.413Z,94.10
2019-04-29T07:17:36.507Z,94.40
2019-04-29T07:20:13.864Z,94.20
2019-04-29T07:22:49.831Z,94.40
2019-04-29T07:25:28.854Z,94.20
2019-04-29T07:28:03.665Z,93.80
2019-04-29T07:31:00.606Z,94.10
2019-04-29T07:33:24.011Z,93.60
2019-04-29T07:36:11.836Z,93.60
2019-04-29T07:38:59.450Z,93.30
2019-04-29T07:41:38.212Z,93.30
2019-04-29T07:44:20.020Z,93.30
2019-04-29T07:49:57.118Z,93.30
2019-04-29T07:55:44.294Z,93.80
2019-04-29T07:58:22.963Z,94.40
2019-04-29T08:00:58.665Z,94.30
2019-04-29T08:03:35.614Z,94.30
2019-04-29T08:06:10.134Z,94.40
2019-04-29T08:08:54.838Z,94.20
2019-04-29T08:11:25.571Z,94.50
2019-04-29T08:14:03.115Z,94.30
2019-04-29T08:16:39.175Z,94.30
2019-04-29T08:19:16.227Z,94.00
2019-04-29T08:22:04.655Z,93.60
2019-04-29T08:24:41.613Z,93.70
2019-04-29T08:27:17.195Z,93.70
2019-04-29T08:29:53.762Z,93.20
2019-04-29T08:32:31.637Z,93.30
2019-04-29T08:35:05.959Z,93.50
2019-04-29T08:37:49.868Z,93.40
2019-04-29T08:40:29.395Z,93.40
2019-04-29T08:43:24.301Z,93.20
2019-04-29T08:46:12.658Z,93.30
2019-04-29T08:48:53.337Z,93.00
2019-04-29T08:51:30.932Z,93.40
2019-04-29T08:54:07.881Z,93.70
2019-04-29T08:57:01.688Z,93.90
2019-04-29T08:59:24.427Z,93.60
2019-04-29T09:02:05.289Z,93.50
2019-04-29T09:04:52.980Z,93.20
2019-04-29T09:07:22.175Z,93.60
2019-04-29T09:10:01.655Z,93.40
2019-04-29T09:12:39.457Z,93.00
2019-04-29T09:15:15.242Z,93.00
2019-04-29T09:17:52.691Z,92.90
2019-04-29T09:20:26.788Z,92.60
2019-04-29T09:23:07.969Z,92.80
2019-04-29T09:25:43.389Z,92.30
2019-04-29T09:28:27.429Z,92.70
2019-04-29T09:30:56.144Z,93.10
2019-04-29T09:33:44.104Z,93.00
2019-04-29T09:36:16.763Z,92.70
2019-04-29T09:38:55.344Z,92.90
2019-04-29T09:41:35.042Z,92.70
2019-04-29T09:44:35.322Z,92.90
2019-04-29T09:47:10.927Z,92.90
2019-04-29T09:49:48.026Z,93.10
2019-04-29T09:52:23.675Z,93.00
2019-04-29T09:54:59.605Z,92.90
2019-04-29T09:57:37.391Z,92.60
2019-04-29T10:00:30.147Z,92.60
2019-04-29T10:03:06.911Z,92.90
2019-04-29T10:05:48.690Z,93.10
2019-04-29T10:08:24.909Z,92.90
2019-04-29T10:11:00.499Z,93.00
2019-04-29T10:13:38.328Z,93.30
2019-04-29T10:16:31.730Z,93.00
2019-04-29T10:19:12.222Z,93.20
2019-04-29T10:21:48.963Z,93.50
2019-04-29T10:24:25.098Z,93.30
2019-04-29T10:27:00.705Z,93.20
2019-04-29T10:29:42.865Z,93.60
2019-04-29T10:32:20.211Z,93.40
2019-04-29T10:34:57.844Z,93.40
2019-04-29T10:37:34.893Z,92.70
2019-04-29T10:40:28.301Z,93.20
2019-04-29T10:43:15.474Z,92.90
2019-04-29T10:46:12.432Z,93.10
2019-04-29T10:48:53.223Z,93.00
2019-04-29T10:51:29.519Z,92.90
2019-04-29T10:54:05.237Z,92.70
2019-04-29T10:59:19.789Z,93.70
2019-04-29T11:02:09.342Z,93.90
2019-04-29T11:04:42.916Z,93.90
2019-04-29T11:07:36.058Z,94.00
2019-04-29T11:10:25.221Z,94.20
2019-04-29T11:12:58.556Z,93.90
2019-04-29T11:15:35.111Z,93.90
2019-04-29T11:18:12.802Z,93.80
2019-04-29T11:20:53.776Z,93.70
2019-04-29T11:23:30.704Z,94.00
2019-04-29T11:26:11.582Z,93.30
2019-04-29T11:28:51.171Z,93.30
2019-04-29T11:31:31.330Z,93.50
2019-04-29T11:34:23.776Z,92.90
2019-04-29T11:37:00.388Z,93.10
2019-04-29T11:39:36.541Z,93.10
2019-04-29T11:42:13.690Z,92.80
2019-04-29T11:44:50.352Z,92.50
2019-04-29T11:47:33.562Z,92.40
2019-04-29T11:50:15.055Z,93.20
2019-04-29T11:52:55.503Z,92.60
2019-04-29T11:55:31.142Z,92.70
2019-04-29T12:01:11.499Z,93.40
2019-04-29T12:04:11.004Z,93.50
2019-04-29T12:06:51.067Z,93.70
2019-04-29T12:09:25.455Z,93.70
2019-04-29T12:12:00.968Z,93.80
2019-04-29T12:14:49.818Z,94.20
2019-04-29T12:17:38.671Z,93.90
2019-04-29T12:20:21.347Z,93.80
2019-04-29T12:22:58.750Z,94.10
2019-04-29T12:25:37.373Z,93.80
2019-04-29T12:28:19.230Z,93.80
2019-04-29T12:30:53.885Z,94.00
2019-04-29T12:33:36.898Z,93.40
2019-04-29T12:36:12.600Z,93.10
2019-04-29T12:38:51.488Z,93.10
2019-04-29T12:41:32.751Z,93.30
2019-04-29T12:44:17.953Z,93.40
2019-04-29T12:46:56.367Z,93.30
2019-04-29T12:49:34.224Z,93.10
2019-04-29T12:52:09.768Z,93.00
2019-04-29T12:54:47.732Z,93.30
2019-04-29T12:57:24.789Z,93.10
2019-04-29T13:00:01.266Z,92.90
2019-04-29T13:02:59.936Z,92.70
2019-04-29T13:06:02.646Z,92.60
2019-04-29T13:08:53.041Z,92.70
2019-04-29T13:11:37.526Z,92.80
2019-04-29T13:14:10.160Z,92.80
2019-04-29T13:16:55.811Z,92.60
2019-04-29T13:19:31.135Z,92.40
2019-04-29T13:22:10.493Z,92.50
2019-04-29T13:24:50.371Z,92.60
2019-04-29T13:27:26.694Z,92.70
2019-04-29T13:30:02.277Z,93.30
2019-04-29T13:32:40.246Z,93.40
2019-04-29T13:35:16.898Z,93.30
2019-04-29T13:37:55.099Z,93.00
2019-04-29T13:40:33.011Z,92.80
2019-04-29T13:43:13.248Z,92.90
2019-04-29T13:45:58.956Z,93.00
2019-04-29T13:48:55.994Z,93.20
2019-04-29T13:51:35.675Z,93.30
2019-04-29T13:54:16.268Z,93.00
2019-04-29T13:57:07.406Z,93.20
2019-04-29T13:59:50.339Z,93.10
2019-04-29T14:02:31.275Z,92.70
2019-04-29T14:05:06.102Z,92.80
2019-04-29T14:07:48.680Z,93.30
2019-04-29T14:10:29.106Z,93.40
2019-04-29T14:13:13.285Z,93.20
2019-04-29T14:15:50.326Z,92.70
2019-04-29T14:18:35.059Z,92.90
2019-04-29T14:21:17.649Z,93.20
2019-04-29T14:24:04.016Z,93.00
2019-04-29T14:26:42.073Z,93.30
2019-04-29T14:29:22.704Z,93.20
2019-04-29T14:32:05.642Z,93.20
2019-04-29T14:34:55.916Z,93.10
2019-04-29T14:37:32.504Z,93.30
2019-04-29T14:40:11.337Z,93.10
2019-04-29T14:43:25.994Z,93.30
2019-04-29T14:45:52.286Z,93.20
2019-04-29T14:48:42.146Z,93.40
2019-04-29T14:51:13.672Z,93.20
2019-04-29T14:53:56.517Z,93.10
2019-04-29T14:56:35.309Z,93.20
2019-04-29T14:59:11.336Z,93.20
2019-04-29T15:01:51.164Z,93.70
2019-04-29T15:04:40.378Z,93.90
2019-04-29T15:07:18.734Z,93.20
2019-04-29T15:13:20.600Z,93.20
2019-04-29T15:16:03.374Z,93.00
2019-04-29T15:18:49.569Z,93.00
2019-04-29T15:24:39.888Z,92.90
2019-04-29T15:30:13.327Z,92.80
2019-04-29T15:32:57.756Z,93.10
2019-04-29T15:35:34.508Z,93.50
2019-04-29T15:38:12.211Z,93.10
2019-04-29T15:40:53.093Z,93.50
2019-04-29T15:43:46.443Z,93.40
2019-04-29T15:49:05.195Z,93.60
2019-04-29T15:51:52.124Z,93.30
2019-04-29T15:54:29.056Z,93.90
2019-04-29T15:57:09.155Z,93.50
2019-04-29T15:59:48.918Z,93.50
2019-04-29T16:02:27.653Z,93.80
2019-04-29T16:05:14.855Z,93.60
2019-04-29T16:07:59.758Z,93.50
2019-04-29T16:10:59.498Z,93.30
2019-04-29T16:13:39.968Z,93.40
2019-04-29T16:16:17.049Z,93.10
2019-04-29T16:21:41.590Z,93.20
2019-04-29T16:24:26.272Z,93.50
2019-04-29T16:27:01.415Z,93.80
2019-04-29T16:29:40.680Z,93.60
2019-04-29T16:32:28.308Z,93.50
2019-04-29T16:35:05.850Z,93.50
2019-04-29T16:37:42.818Z,93.20
2019-04-29T16:40:18.360Z,93.20
2019-04-29T16:43:03.675Z,93.10
2019-04-29T16:45:44.296Z,93.50
2019-04-29T16:51:24.523Z,93.50
2019-04-29T16:54:12.680Z,93.20
2019-04-29T16:56:47.467Z,93.30
2019-04-29T16:59:23.252Z,93.40
2019-04-29T17:02:00.373Z,93.30
2019-04-29T17:04:41.172Z,93.30
2019-04-29T17:07:20.680Z,93.80
2019-04-29T17:10:14.453Z,93.80
2019-04-29T17:12:55.489Z,93.80
2019-04-29T17:15:31.205Z,93.40
2019-04-29T17:18:09.886Z,93.50
2019-04-29T17:20:47.196Z,93.20
2019-04-29T17:23:24.373Z,93.50
2019-04-29T17:26:07.487Z,94.00
2019-04-29T17:28:43.998Z,93.90
2019-04-29T17:31:30.063Z,93.80
2019-04-29T17:35:13.992Z,93.60
2019-04-29T17:35:19.502Z,93.60
2019-04-29T17:36:57.074Z,93.50
2019-04-29T17:39:34.516Z,93.50
2019-04-29T17:42:10.230Z,93.70
2019-04-29T17:44:50.698Z,93.50
2019-04-29T17:47:32.018Z,93.50
2019-04-29T17:50:23.751Z,93.30
2019-04-29T17:52:53.751Z,93.50
2019-04-29T17:55:40.723Z,93.60
2019-04-29T17:58:20.241Z,93.70
2019-04-29T18:01:15.506Z,93.60
2019-04-29T18:03:55.854Z,93.50
2019-04-29T18:06:32.465Z,93.50
2019-04-29T18:09:26.527Z,93.30
2019-04-29T18:12:05.123Z,93.50
2019-04-29T18:14:41.889Z,93.70
2019-04-29T18:17:26.909Z,93.50
2019-04-29T18:19:55.955Z,93.80
2019-04-29T18:22:41.600Z,93.40
2019-04-29T18:25:30.863Z,93.80
2019-04-29T18:28:00.490Z,93.50
2019-04-29T18:30:38.322Z,93.70
2019-04-29T18:33:12.787Z,93.60
2019-04-29T18:35:48.481Z,93.60
2019-04-29T18:38:27.717Z,93.60
2019-04-29T18:41:03.858Z,93.50
2019-04-29T18:43:40.968Z,93.50
2019-04-29T18:46:16.816Z,93.40
2019-04-29T18:48:55.871Z,93.50
2019-04-29T18:51:32.154Z,93.30
2019-04-29T18:54:07.710Z,93.70
2019-04-29T18:56:43.207Z,93.90
2019-04-29T18:59:21.338Z,93.50
2019-04-29T19:02:00.800Z,93.50
2019-04-29T19:04:40.456Z,93.70
2019-04-29T19:07:20.207Z,93.90
2019-04-29T19:09:55.519Z,93.80
2019-04-29T19:12:31.731Z,93.60
2019-04-29T19:15:11.416Z,93.60
2019-04-29T19:17:58.470Z,93.40
2019-04-29T19:20:25.098Z,93.40
2019-04-29T19:23:07.819Z,93.70
2019-04-29T19:25:41.476Z,93.50
2019-04-29T19:28:25.230Z,93.60
2019-04-29T19:30:56.134Z,93.80
2019-04-29T19:33:30.695Z,93.80
2019-04-29T19:36:08.824Z,93.50
2019-04-29T19:38:44.145Z,93.90
2019-04-29T19:41:21.184Z,93.80
2019-04-29T19:43:58.649Z,93.60
2019-04-29T19:46:38.294Z,93.70
2019-04-29T19:49:12.483Z,93.80
2019-04-29T19:51:48.035Z,94.00
2019-04-29T19:54:28.365Z,94.00
2019-04-29T19:57:03.409Z,93.70
2019-04-29T19:59:38.649Z,93.70
2019-04-29T20:02:16.472Z,93.90
2019-04-29T20:04:59.965Z,93.80
2019-04-29T20:07:41.091Z,93.60
2019-04-29T20:10:13.466Z,93.70
2019-04-29T20:12:56.833Z,93.70
2019-04-29T20:15:37.647Z,93.60
2019-04-29T20:18:14.115Z,93.40
2019-04-29T20:20:52.323Z,93.70
2019-04-29T20:23:28.060Z,93.80
2019-04-29T20:26:13.821Z,93.50
2019-04-29T20:28:42.356Z,93.60
2019-04-29T20:31:21.989Z,93.90
2019-04-29T20:33:56.065Z,93.90
2019-04-29T20:36:40.852Z,93.90
2019-04-29T20:39:14.911Z,93.70
2019-04-29T20:41:48.897Z,94.10
2019-04-29T20:44:23.735Z,94.20
2019-04-29T20:47:17.085Z,93.90
2019-04-29T20:49:39.513Z,93.90
2019-04-29T20:52:21.944Z,93.60
2019-04-29T20:55:00.449Z,93.90
2019-04-29T20:57:33.413Z,93.80
2019-04-29T21:00:09.694Z,93.80
2019-04-29T21:02:47.281Z,93.80
2019-04-29T21:05:24.380Z,94.00
2019-04-29T21:08:02.838Z,94.10
2019-04-29T21:10:37.849Z,94.00
2019-04-29T21:13:19.965Z,94.10
2019-04-29T21:15:55.397Z,94.40
2019-04-29T21:18:30.353Z,94.20
2019-04-29T21:21:07.859Z,94.10
2019-04-29T21:23:42.569Z,93.80
2019-04-29T21:26:18.112Z,94.00
2019-04-29T21:28:55.572Z,93.90
2019-04-29T21:31:31.017Z,93.40
2019-04-29T21:34:06.670Z,93.40
2019-04-29T21:36:45.244Z,93.70
2019-04-29T21:39:25.130Z,93.90
2019-04-29T21:42:07.812Z,93.20
2019-04-29T21:44:43.721Z,92.90
2019-04-29T21:47:19.795Z,92.80
2019-04-29T21:49:57.737Z,93.00
2019-04-29T21:52:30.705Z,93.30
2019-04-29T21:55:06.338Z,93.90
2019-04-29T21:57:41.944Z,93.90
2019-04-29T22:00:23.920Z,93.80
2019-04-29T22:02:55.622Z,94.00
2019-04-29T22:05:32.421Z,93.90
2019-04-29T22:08:08.071Z,93.90
2019-04-29T22:10:45.134Z,93.70
2019-04-29T22:13:20.506Z,93.80
2019-04-29T22:15:56.145Z,93.70
2019-04-29T22:18:32.709Z,93.60
2019-04-29T22:21:10.110Z,93.40
2019-04-29T22:23:51.069Z,93.70
2019-04-29T22:26:23.274Z,93.40
2019-04-29T22:29:03.142Z,93.70
2019-04-29T22:31:39.169Z,93.40
2019-04-29T22:34:19.154Z,93.50
2019-04-29T22:36:52.611Z,93.40
2019-04-29T22:39:30.168Z,93.50
2019-04-29T22:42:13.353Z,93.50
2019-04-29T22:44:52.497Z,94.00
2019-04-29T22:47:25.513Z,93.60
2019-04-29T22:50:03.234Z,93.80
2019-04-29T22:52:38.099Z,93.90
2019-04-29T22:55:15.427Z,94.00
2019-04-29T22:57:50.743Z,93.90
2019-04-29T23:00:32.697Z,93.90
2019-04-29T23:03:04.277Z,93.90
2019-04-29T23:05:39.707Z,93.70
2019-04-29T23:08:15.391Z,93.50
2019-04-29T23:10:50.815Z,93.70
2019-04-29T23:13:26.783Z,93.30
2019-04-29T23:16:02.571Z,93.80
2019-04-29T23:18:41.957Z,93.90
2019-04-29T23:21:36.038Z,93.30
2019-04-29T23:24:13.227Z,93.10
2019-04-29T23:26:48.565Z,93.20
2019-04-29T23:29:25.512Z,92.90
2019-04-29T23:32:04.738Z,93.10
2019-04-29T23:34:38.274Z,93.50
2019-04-29T23:37:13.820Z,93.40
2019-04-29T23:39:49.542Z,93.40
2019-04-29T23:42:26.110Z,93.30
2019-04-29T23:45:01.931Z,93.10
2019-04-29T23:47:37.488Z,93.10
2019-04-29T23:50:14.010Z,92.80
2019-04-29T23:52:51.867Z,92.80
2019-04-29T23:55:29.258Z,92.50
2019-04-29T23:58:20.968Z,92.60
